Hundvaag 1 weather for May 2008
Month no. 251
Obs.
Da.
Temp. Dew Point Precip. Wind
Speed
Wind gusts Cloud cover Press. Humidity Wind dir. Sunny OPT
01.05.2008 11,3   0,0 2,0   0 1004,4 68,0 45,0   65,0 %
02.05.2008 7,2   0,0 1,0   10 1011,8 78,0 157,5 1 85,0 %
03.05.2008 7,8   0,0 0,0   3 1022,0 87,0 67,5 1 70,0 %
04.05.2008 5,0   0,0 0,0   10 1025,1 90,0 22,5 1 85,0 %
05.05.2008 9,4   0,0 0,0   4 1029,8 78,0 157,5 1 72,5 %
06.05.2008 8,9   0,0 2,0   10 1030,5 86,0 22,5 1 87,5 %
07.05.2008 7,5   0,0 1,0   0 1026,1 98,0 22,5 1 62,5 %
08.05.2008 8,6   0,0 0,0   3 1022,0 96,0 315,0 1 70,0 %
09.05.2008 9,8   0,0 0,0   10 1019,6 92,0 270,0 1 87,5 %
10.05.2008 7,8   0,0 0,0   10 1017,9 91,0 67,5 1 87,5 %
11.05.2008 12,2   0,0 2,0   0 1019,0 73,0 0,0 1 65,0 %
12.05.2008 10,0   0,0 0,0   4 1020,0 83,0 180,0 1 75,0 %
13.05.2008 7,2   0,0 0,0   8 1022,0 84,0 135,0 1 80,0 %
14.05.2008 7,2   0,0 0,0   5 1015,9 84,0 90,0 1 72,5 %
15.05.2008 9,4   0,0 0,0   8 1009,1 89,0 292,5 1 82,5 %
16.05.2008 10,0   1,0 3,0   1 1003,0 96,0 337,5 1 67,5 %
17.05.2008 7,2   0,0 2,0   9 1002,0 67,0 292,5 1 82,5 %
18.05.2008 7,2   0,0 0,0   7 1007,1 81,0 135,0 1 77,5 %
19.05.2008 5,6   0,0 2,0   8 1010,2 83,0 337,5 1 80,0 %
20.05.2008 5,0   0,0 0,0   6 1012,9 77,0 270,0 1 75,0 %
21.05.2008 4,4   0,0 0,0   9 1015,9 81,0 315,0 1 80,0 %
22.05.2008 5,0   0,0 0,0   8 1015,9 82,0 315,0 1 80,0 %
23.05.2008 5,6   0,0 0,0   10 1015,9 83,0 45,0 1 85,0 %
24.05.2008 6,7   0,0 0,0   10 1016,9 83,0 202,5 1 85,0 %
25.05.2008 10,6   0,0 0,0   10 1021,0 59,0 135,0 1 90,0 %
26.05.2008 7,8   0,0 0,0   10 1020,0 83,0 135,0 1 87,5 %
27.05.2008 8,9   0,0 0,0   10 1017,9 81,0 270,0 1 87,5 %
28.05.2008 13,3   0,0 0,0   1 1017,9 56,0 135,0 1 70,0 %
29.05.2008 14,4   0,6 1,0   3 1013,9 51,0 292,5 1 75,0 %
30.05.2008 15,0   0,0 0,0   0 1014,9 72,0 337,5   70,0 %
31.05.2008 15,2   0,0 0,0   10 1015,6 58,0 135,0 1 95,0 %
Avrg/Sum 8,7   1,6 0,5   6,4 1016,7 79,7 178,5 29 78,5 %